sensor_id;sensor_type;location;lat;lon;timestamp;P1;durP1;ratioP1;P2;durP2;ratioP2
13605;SDS011;6874;52.084;5.090;2023-06-26T00:01:14;316.70;;;304.90;;
13605;SDS011;6874;52.084;5.090;2023-06-26T00:03:40;316.30;;;304.50;;
13605;SDS011;6874;52.084;5.090;2023-06-26T00:06:05;309.93;;;298.33;;
13605;SDS011;6874;52.084;5.090;2023-06-26T00:08:31;316.37;;;304.53;;
13605;SDS011;6874;52.084;5.090;2023-06-26T00:10:56;309.37;;;297.80;;
13605;SDS011;6874;52.084;5.090;2023-06-26T00:13:22;302.13;;;291.10;;
13605;SDS011;6874;52.084;5.090;2023-06-26T00:15:48;295.00;;;284.10;;
13605;SDS011;6874;52.084;5.090;2023-06-26T00:18:15;292.50;;;281.87;;
13605;SDS011;6874;52.084;5.090;2023-06-26T00:20:40;286.73;;;276.33;;
13605;SDS011;6874;52.084;5.090;2023-06-26T00:23:06;284.90;;;274.43;;
13605;SDS011;6874;52.084;5.090;2023-06-26T00:25:32;278.00;;;267.87;;
13605;SDS011;6874;52.084;5.090;2023-06-26T00:27:58;278.60;;;268.43;;
13605;SDS011;6874;52.084;5.090;2023-06-26T00:30:24;269.90;;;260.07;;
13605;SDS011;6874;52.084;5.090;2023-06-26T00:32:49;261.03;;;251.43;;
13605;SDS011;6874;52.084;5.090;2023-06-26T00:35:16;243.17;;;234.13;;
13605;SDS011;6874;52.084;5.090;2023-06-26T00:37:41;230.37;;;221.63;;
13605;SDS011;6874;52.084;5.090;2023-06-26T00:40:07;221.07;;;212.63;;
13605;SDS011;6874;52.084;5.090;2023-06-26T00:42:34;229.50;;;220.73;;
13605;SDS011;6874;52.084;5.090;2023-06-26T00:44:59;206.17;;;198.13;;
13605;SDS011;6874;52.084;5.090;2023-06-26T00:47:25;213.07;;;204.87;;
13605;SDS011;6874;52.084;5.090;2023-06-26T00:49:52;200.77;;;193.03;;
13605;SDS011;6874;52.084;5.090;2023-06-26T00:52:19;164.67;;;158.33;;
13605;SDS011;6874;52.084;5.090;2023-06-26T00:54:45;154.30;;;148.47;;
13605;SDS011;6874;52.084;5.090;2023-06-26T00:57:11;137.47;;;132.43;;
13605;SDS011;6874;52.084;5.090;2023-06-26T00:59:37;131.67;;;126.90;;
13605;SDS011;6874;52.084;5.090;2023-06-26T01:02:03;138.73;;;133.73;;
13605;SDS011;6874;52.084;5.090;2023-06-26T01:04:29;142.77;;;137.70;;
13605;SDS011;6874;52.084;5.090;2023-06-26T01:06:57;146.33;;;141.17;;
13605;SDS011;6874;52.084;5.090;2023-06-26T01:09:23;137.80;;;133.00;;
13605;SDS011;6874;52.084;5.090;2023-06-26T01:11:50;142.97;;;138.00;;
13605;SDS011;6874;52.084;5.090;2023-06-26T01:14:16;139.63;;;134.80;;
13605;SDS011;6874;52.084;5.090;2023-06-26T01:16:41;134.63;;;129.97;;
13605;SDS011;6874;52.084;5.090;2023-06-26T01:19:15;138.33;;;133.67;;
13605;SDS011;6874;52.084;5.090;2023-06-26T01:21:50;139.20;;;134.47;;
13605;SDS011;6874;52.084;5.090;2023-06-26T01:24:22;147.10;;;142.20;;
13605;SDS011;6874;52.084;5.090;2023-06-26T01:26:52;157.83;;;152.63;;
13605;SDS011;6874;52.084;5.090;2023-06-26T01:29:18;152.73;;;147.63;;
13605;SDS011;6874;52.084;5.090;2023-06-26T01:31:46;148.50;;;143.50;;
13605;SDS011;6874;52.084;5.090;2023-06-26T01:34:15;151.60;;;146.60;;
13605;SDS011;6874;52.084;5.090;2023-06-26T01:36:42;139.83;;;135.20;;
13605;SDS011;6874;52.084;5.090;2023-06-26T01:39:07;139.87;;;135.27;;
13605;SDS011;6874;52.084;5.090;2023-06-26T01:41:33;139.97;;;135.37;;
13605;SDS011;6874;52.084;5.090;2023-06-26T01:49:07;142.57;;;137.90;;
13605;SDS011;6874;52.084;5.090;2023-06-26T01:51:46;139.43;;;134.87;;
13605;SDS011;6874;52.084;5.090;2023-06-26T01:54:19;136.80;;;132.30;;
13605;SDS011;6874;52.084;5.090;2023-06-26T01:56:49;133.97;;;129.57;;
13605;SDS011;6874;52.084;5.090;2023-06-26T01:59:17;129.77;;;125.47;;
13605;SDS011;6874;52.084;5.090;2023-06-26T02:01:44;126.33;;;122.17;;
13605;SDS011;6874;52.084;5.090;2023-06-26T02:04:10;121.07;;;117.07;;
13605;SDS011;6874;52.084;5.090;2023-06-26T02:06:35;120.77;;;116.77;;
13605;SDS011;6874;52.084;5.090;2023-06-26T02:09:01;114.87;;;111.07;;
13605;SDS011;6874;52.084;5.090;2023-06-26T02:11:27;111.80;;;108.10;;
13605;SDS011;6874;52.084;5.090;2023-06-26T02:13:52;101.27;;;97.93;;
13605;SDS011;6874;52.084;5.090;2023-06-26T02:16:18;113.20;;;109.47;;
13605;SDS011;6874;52.084;5.090;2023-06-26T02:18:44;111.83;;;108.13;;
13605;SDS011;6874;52.084;5.090;2023-06-26T02:21:10;111.13;;;107.53;;
13605;SDS011;6874;52.084;5.090;2023-06-26T02:23:35;115.00;;;111.23;;
13605;SDS011;6874;52.084;5.090;2023-06-26T02:26:02;132.57;;;128.23;;
13605;SDS011;6874;52.084;5.090;2023-06-26T02:28:27;138.93;;;134.33;;
13605;SDS011;6874;52.084;5.090;2023-06-26T02:30:53;145.80;;;141.03;;
13605;SDS011;6874;52.084;5.090;2023-06-26T02:33:18;150.27;;;145.40;;
13605;SDS011;6874;52.084;5.090;2023-06-26T02:35:44;137.70;;;133.20;;
13605;SDS011;6874;52.084;5.090;2023-06-26T02:38:10;156.87;;;151.80;;
13605;SDS011;6874;52.084;5.090;2023-06-26T02:40:37;142.67;;;138.10;;
13605;SDS011;6874;52.084;5.090;2023-06-26T02:43:02;150.77;;;145.87;;
13605;SDS011;6874;52.084;5.090;2023-06-26T02:45:28;150.07;;;145.20;;
13605;SDS011;6874;52.084;5.090;2023-06-26T02:47:53;146.83;;;142.07;;
13605;SDS011;6874;52.084;5.090;2023-06-26T02:50:19;155.93;;;150.93;;
13605;SDS011;6874;52.084;5.090;2023-06-26T02:52:44;149.93;;;145.07;;
13605;SDS011;6874;52.084;5.090;2023-06-26T02:55:12;149.67;;;144.83;;
13605;SDS011;6874;52.084;5.090;2023-06-26T02:57:38;144.07;;;139.37;;
13605;SDS011;6874;52.084;5.090;2023-06-26T03:00:04;129.97;;;125.63;;
13605;SDS011;6874;52.084;5.090;2023-06-26T03:02:33;124.63;;;120.40;;
13605;SDS011;6874;52.084;5.090;2023-06-26T03:04:58;131.03;;;126.53;;
13605;SDS011;6874;52.084;5.090;2023-06-26T03:07:24;135.67;;;130.93;;
13605;SDS011;6874;52.084;5.090;2023-06-26T03:09:49;155.43;;;149.80;;
13605;SDS011;6874;52.084;5.090;2023-06-26T03:12:15;166.60;;;160.40;;
13605;SDS011;6874;52.084;5.090;2023-06-26T03:14:41;186.73;;;179.83;;
13605;SDS011;6874;52.084;5.090;2023-06-26T03:17:06;198.27;;;191.03;;
13605;SDS011;6874;52.084;5.090;2023-06-26T03:19:32;189.40;;;182.40;;
13605;SDS011;6874;52.084;5.090;2023-06-26T03:21:58;202.37;;;194.90;;
13605;SDS011;6874;52.084;5.090;2023-06-26T03:24:23;222.77;;;214.50;;
13605;SDS011;6874;52.084;5.090;2023-06-26T03:26:52;219.60;;;211.43;;
13605;SDS011;6874;52.084;5.090;2023-06-26T03:29:17;239.97;;;230.97;;
13605;SDS011;6874;52.084;5.090;2023-06-26T03:31:43;244.97;;;235.70;;
13605;SDS011;6874;52.084;5.090;2023-06-26T03:34:08;274.53;;;264.10;;
13605;SDS011;6874;52.084;5.090;2023-06-26T03:36:34;288.27;;;277.20;;
13605;SDS011;6874;52.084;5.090;2023-06-26T03:39:00;321.87;;;309.27;;
13605;SDS011;6874;52.084;5.090;2023-06-26T03:41:26;359.83;;;345.73;;
13605;SDS011;6874;52.084;5.090;2023-06-26T03:43:51;391.33;;;375.67;;
13605;SDS011;6874;52.084;5.090;2023-06-26T03:46:17;427.97;;;410.83;;
13605;SDS011;6874;52.084;5.090;2023-06-26T03:48:43;448.53;;;430.40;;
13605;SDS011;6874;52.084;5.090;2023-06-26T03:51:08;461.27;;;442.73;;
13605;SDS011;6874;52.084;5.090;2023-06-26T03:53:34;462.07;;;443.57;;
13605;SDS011;6874;52.084;5.090;2023-06-26T03:56:00;458.13;;;440.13;;
13605;SDS011;6874;52.084;5.090;2023-06-26T03:58:25;446.07;;;428.57;;
13605;SDS011;6874;52.084;5.090;2023-06-26T04:00:51;443.60;;;426.23;;
13605;SDS011;6874;52.084;5.090;2023-06-26T04:03:16;442.00;;;424.80;;
13605;SDS011;6874;52.084;5.090;2023-06-26T04:05:42;443.17;;;425.97;;
13605;SDS011;6874;52.084;5.090;2023-06-26T04:08:08;438.83;;;421.90;;
13605;SDS011;6874;52.084;5.090;2023-06-26T04:10:34;436.70;;;419.87;;
13605;SDS011;6874;52.084;5.090;2023-06-26T04:13:01;430.53;;;414.30;;
13605;SDS011;6874;52.084;5.090;2023-06-26T04:15:27;419.77;;;403.87;;
13605;SDS011;6874;52.084;5.090;2023-06-26T04:17:52;404.07;;;389.03;;
13605;SDS011;6874;52.084;5.090;2023-06-26T04:20:18;413.80;;;398.33;;
13605;SDS011;6874;52.084;5.090;2023-06-26T04:22:44;412.60;;;397.20;;
13605;SDS011;6874;52.084;5.090;2023-06-26T04:25:09;412.33;;;396.93;;
13605;SDS011;6874;52.084;5.090;2023-06-26T04:27:36;406.97;;;391.90;;
13605;SDS011;6874;52.084;5.090;2023-06-26T04:30:02;413.50;;;398.30;;
13605;SDS011;6874;52.084;5.090;2023-06-26T04:32:29;411.13;;;396.00;;
13605;SDS011;6874;52.084;5.090;2023-06-26T04:34:55;395.50;;;381.20;;
13605;SDS011;6874;52.084;5.090;2023-06-26T04:37:21;382.00;;;368.43;;
13605;SDS011;6874;52.084;5.090;2023-06-26T04:39:47;384.40;;;370.93;;
13605;SDS011;6874;52.084;5.090;2023-06-26T04:42:13;353.60;;;341.50;;
13605;SDS011;6874;52.084;5.090;2023-06-26T04:44:38;335.23;;;323.90;;
13605;SDS011;6874;52.084;5.090;2023-06-26T04:47:06;311.73;;;301.33;;
13605;SDS011;6874;52.084;5.090;2023-06-26T04:49:32;271.90;;;262.93;;
13605;SDS011;6874;52.084;5.090;2023-06-26T04:51:57;264.27;;;255.37;;
13605;SDS011;6874;52.084;5.090;2023-06-26T04:54:25;255.93;;;247.17;;
13605;SDS011;6874;52.084;5.090;2023-06-26T04:56:51;241.87;;;233.50;;
13605;SDS011;6874;52.084;5.090;2023-06-26T04:59:16;266.10;;;257.00;;
13605;SDS011;6874;52.084;5.090;2023-06-26T05:01:42;263.13;;;254.03;;
13605;SDS011;6874;52.084;5.090;2023-06-26T05:04:09;245.70;;;237.20;;
13605;SDS011;6874;52.084;5.090;2023-06-26T05:06:34;248.00;;;239.37;;
13605;SDS011;6874;52.084;5.090;2023-06-26T05:09:00;242.80;;;234.27;;
13605;SDS011;6874;52.084;5.090;2023-06-26T05:11:25;241.23;;;232.73;;
13605;SDS011;6874;52.084;5.090;2023-06-26T05:13:51;228.87;;;220.77;;
13605;SDS011;6874;52.084;5.090;2023-06-26T05:16:17;240.17;;;231.83;;
13605;SDS011;6874;52.084;5.090;2023-06-26T05:18:42;265.87;;;256.70;;
13605;SDS011;6874;52.084;5.090;2023-06-26T05:21:08;272.13;;;262.83;;
13605;SDS011;6874;52.084;5.090;2023-06-26T05:23:34;294.30;;;284.37;;
13605;SDS011;6874;52.084;5.090;2023-06-26T05:26:00;284.37;;;274.53;;
13605;SDS011;6874;52.084;5.090;2023-06-26T05:28:27;281.23;;;271.60;;
13605;SDS011;6874;52.084;5.090;2023-06-26T05:30:54;282.17;;;272.43;;
13605;SDS011;6874;52.084;5.090;2023-06-26T05:33:21;278.13;;;268.40;;
13605;SDS011;6874;52.084;5.090;2023-06-26T05:35:48;273.53;;;263.93;;
13605;SDS011;6874;52.084;5.090;2023-06-26T05:38:16;270.90;;;261.33;;
13605;SDS011;6874;52.084;5.090;2023-06-26T05:40:42;269.23;;;259.60;;
13605;SDS011;6874;52.084;5.090;2023-06-26T05:43:08;266.37;;;256.80;;
13605;SDS011;6874;52.084;5.090;2023-06-26T05:45:34;266.67;;;257.07;;
13605;SDS011;6874;52.084;5.090;2023-06-26T05:47:59;253.33;;;244.00;;
13605;SDS011;6874;52.084;5.090;2023-06-26T05:50:25;262.73;;;253.20;;
13605;SDS011;6874;52.084;5.090;2023-06-26T05:52:51;264.10;;;254.20;;
13605;SDS011;6874;52.084;5.090;2023-06-26T05:55:17;258.53;;;248.90;;
13605;SDS011;6874;52.084;5.090;2023-06-26T05:57:43;260.43;;;250.57;;
13605;SDS011;6874;52.084;5.090;2023-06-26T06:00:11;264.43;;;254.23;;
13605;SDS011;6874;52.084;5.090;2023-06-26T06:02:37;290.97;;;279.53;;
13605;SDS011;6874;52.084;5.090;2023-06-26T06:05:03;273.80;;;262.83;;
13605;SDS011;6874;52.084;5.090;2023-06-26T06:07:31;287.77;;;276.17;;
13605;SDS011;6874;52.084;5.090;2023-06-26T06:09:58;303.27;;;291.10;;
13605;SDS011;6874;52.084;5.090;2023-06-26T06:12:24;320.87;;;307.80;;
13605;SDS011;6874;52.084;5.090;2023-06-26T06:14:49;330.83;;;317.13;;
13605;SDS011;6874;52.084;5.090;2023-06-26T06:17:15;335.83;;;322.10;;
13605;SDS011;6874;52.084;5.090;2023-06-26T06:19:40;352.00;;;337.53;;
13605;SDS011;6874;52.084;5.090;2023-06-26T06:22:06;366.07;;;351.00;;
13605;SDS011;6874;52.084;5.090;2023-06-26T06:24:31;365.10;;;350.23;;
13605;SDS011;6874;52.084;5.090;2023-06-26T06:26:57;425.47;;;407.63;;
13605;SDS011;6874;52.084;5.090;2023-06-26T06:29:22;507.77;;;486.17;;
13605;SDS011;6874;52.084;5.090;2023-06-26T06:31:48;525.23;;;503.13;;
13605;SDS011;6874;52.084;5.090;2023-06-26T06:34:13;526.70;;;504.30;;
13605;SDS011;6874;52.084;5.090;2023-06-26T06:36:39;507.00;;;485.70;;
13605;SDS011;6874;52.084;5.090;2023-06-26T06:39:05;495.10;;;474.20;;
13605;SDS011;6874;52.084;5.090;2023-06-26T06:41:30;496.17;;;475.03;;
13605;SDS011;6874;52.084;5.090;2023-06-26T06:43:56;489.80;;;469.10;;
13605;SDS011;6874;52.084;5.090;2023-06-26T06:46:21;477.27;;;456.97;;
13605;SDS011;6874;52.084;5.090;2023-06-26T06:48:47;476.17;;;456.10;;
13605;SDS011;6874;52.084;5.090;2023-06-26T06:51:13;449.10;;;430.13;;
13605;SDS011;6874;52.084;5.090;2023-06-26T06:53:38;444.70;;;425.87;;
13605;SDS011;6874;52.084;5.090;2023-06-26T06:56:04;432.00;;;413.40;;
13605;SDS011;6874;52.084;5.090;2023-06-26T06:58:31;431.00;;;412.83;;
13605;SDS011;6874;52.084;5.090;2023-06-26T07:00:58;422.10;;;404.10;;
13605;SDS011;6874;52.084;5.090;2023-06-26T07:03:24;407.10;;;389.80;;
13605;SDS011;6874;52.084;5.090;2023-06-26T07:05:50;407.83;;;390.40;;
13605;SDS011;6874;52.084;5.090;2023-06-26T07:08:15;395.43;;;378.47;;
13605;SDS011;6874;52.084;5.090;2023-06-26T07:10:41;392.57;;;375.67;;
13605;SDS011;6874;52.084;5.090;2023-06-26T07:13:07;389.13;;;372.43;;
13605;SDS011;6874;52.084;5.090;2023-06-26T07:15:32;367.60;;;351.60;;
13605;SDS011;6874;52.084;5.090;2023-06-26T07:17:58;379.97;;;363.67;;
13605;SDS011;6874;52.084;5.090;2023-06-26T07:20:23;368.67;;;352.80;;
13605;SDS011;6874;52.084;5.090;2023-06-26T07:22:49;357.07;;;341.33;;
13605;SDS011;6874;52.084;5.090;2023-06-26T07:25:15;350.83;;;335.20;;
13605;SDS011;6874;52.084;5.090;2023-06-26T07:27:41;338.13;;;322.83;;
13605;SDS011;6874;52.084;5.090;2023-06-26T07:30:07;355.87;;;339.90;;
13605;SDS011;6874;52.084;5.090;2023-06-26T07:32:36;326.87;;;312.03;;
13605;SDS011;6874;52.084;5.090;2023-06-26T07:35:02;309.60;;;295.60;;
13605;SDS011;6874;52.084;5.090;2023-06-26T07:37:28;286.40;;;273.70;;
13605;SDS011;6874;52.084;5.090;2023-06-26T07:39:54;270.60;;;260.30;;
13605;SDS011;6874;52.084;5.090;2023-06-26T07:42:19;246.73;;;237.47;;
13605;SDS011;6874;52.084;5.090;2023-06-26T07:44:45;207.53;;;199.67;;
13605;SDS011;6874;52.084;5.090;2023-06-26T07:47:11;210.43;;;202.83;;
13605;SDS011;6874;52.084;5.090;2023-06-26T07:49:36;260.37;;;251.30;;
13605;SDS011;6874;52.084;5.090;2023-06-26T07:52:04;291.77;;;281.43;;
13605;SDS011;6874;52.084;5.090;2023-06-26T07:54:30;342.03;;;329.37;;
13605;SDS011;6874;52.084;5.090;2023-06-26T07:56:56;367.70;;;353.30;;
13605;SDS011;6874;52.084;5.090;2023-06-26T07:59:27;388.23;;;372.80;;
13605;SDS011;6874;52.084;5.090;2023-06-26T08:01:53;394.03;;;378.17;;
13605;SDS011;6874;52.084;5.090;2023-06-26T08:04:20;387.43;;;371.63;;
13605;SDS011;6874;52.084;5.090;2023-06-26T08:06:48;372.23;;;357.07;;
13605;SDS011;6874;52.084;5.090;2023-06-26T08:09:16;368.47;;;353.77;;
13605;SDS011;6874;52.084;5.090;2023-06-26T08:11:43;385.23;;;370.03;;
13605;SDS011;6874;52.084;5.090;2023-06-26T08:14:08;402.57;;;386.60;;
13605;SDS011;6874;52.084;5.090;2023-06-26T08:16:34;391.87;;;376.30;;
13605;SDS011;6874;52.084;5.090;2023-06-26T08:18:59;386.17;;;371.37;;
13605;SDS011;6874;52.084;5.090;2023-06-26T08:21:26;384.03;;;369.67;;
13605;SDS011;6874;52.084;5.090;2023-06-26T08:23:51;306.43;;;296.37;;
13605;SDS011;6874;52.084;5.090;2023-06-26T08:26:17;171.93;;;166.40;;
13605;SDS011;6874;52.084;5.090;2023-06-26T08:28:42;129.33;;;125.10;;
13605;SDS011;6874;52.084;5.090;2023-06-26T08:31:08;139.10;;;134.30;;
13605;SDS011;6874;52.084;5.090;2023-06-26T08:33:34;158.03;;;152.53;;
13605;SDS011;6874;52.084;5.090;2023-06-26T08:35:59;166.60;;;160.63;;
13605;SDS011;6874;52.084;5.090;2023-06-26T08:38:25;182.67;;;175.93;;
13605;SDS011;6874;52.084;5.090;2023-06-26T08:40:50;208.73;;;201.00;;
13605;SDS011;6874;52.084;5.090;2023-06-26T08:43:16;281.80;;;270.97;;
13605;SDS011;6874;52.084;5.090;2023-06-26T08:45:42;361.83;;;347.57;;
13605;SDS011;6874;52.084;5.090;2023-06-26T08:48:08;348.20;;;335.10;;
13605;SDS011;6874;52.084;5.090;2023-06-26T08:50:34;337.37;;;324.87;;
13605;SDS011;6874;52.084;5.090;2023-06-26T08:53:04;379.67;;;365.57;;
13605;SDS011;6874;52.084;5.090;2023-06-26T08:55:43;399.00;;;384.27;;
13605;SDS011;6874;52.084;5.090;2023-06-26T08:58:08;398.97;;;384.30;;
13605;SDS011;6874;52.084;5.090;2023-06-26T09:00:35;380.13;;;366.37;;
13605;SDS011;6874;52.084;5.090;2023-06-26T09:03:01;361.73;;;348.80;;
13605;SDS011;6874;52.084;5.090;2023-06-26T09:05:29;355.50;;;342.47;;
13605;SDS011;6874;52.084;5.090;2023-06-26T09:07:56;349.47;;;336.13;;
13605;SDS011;6874;52.084;5.090;2023-06-26T09:10:22;368.50;;;354.30;;
13605;SDS011;6874;52.084;5.090;2023-06-26T09:12:48;364.63;;;350.43;;
13605;SDS011;6874;52.084;5.090;2023-06-26T09:15:19;375.73;;;361.43;;
13605;SDS011;6874;52.084;5.090;2023-06-26T09:17:45;347.17;;;334.90;;
13605;SDS011;6874;52.084;5.090;2023-06-26T09:20:13;290.53;;;280.73;;
13605;SDS011;6874;52.084;5.090;2023-06-26T09:22:41;283.43;;;273.40;;
13605;SDS011;6874;52.084;5.090;2023-06-26T09:25:07;317.00;;;305.27;;
13605;SDS011;6874;52.084;5.090;2023-06-26T09:27:34;316.77;;;304.90;;
13605;SDS011;6874;52.084;5.090;2023-06-26T09:30:01;332.57;;;320.27;;
13605;SDS011;6874;52.084;5.090;2023-06-26T09:32:28;308.57;;;297.77;;
13605;SDS011;6874;52.084;5.090;2023-06-26T09:34:54;277.80;;;268.60;;
13605;SDS011;6874;52.084;5.090;2023-06-26T09:37:25;224.33;;;217.23;;
13605;SDS011;6874;52.084;5.090;2023-06-26T09:39:54;240.63;;;233.20;;
13605;SDS011;6874;52.084;5.090;2023-06-26T09:42:20;240.07;;;232.67;;
13605;SDS011;6874;52.084;5.090;2023-06-26T09:44:47;267.33;;;259.23;;
13605;SDS011;6874;52.084;5.090;2023-06-26T09:47:15;251.47;;;243.83;;
13605;SDS011;6874;52.084;5.090;2023-06-26T09:49:43;217.90;;;211.10;;
13605;SDS011;6874;52.084;5.090;2023-06-26T09:52:09;206.47;;;199.87;;
13605;SDS011;6874;52.084;5.090;2023-06-26T09:54:34;196.30;;;189.90;;
13605;SDS011;6874;52.084;5.090;2023-06-26T09:57:15;218.07;;;210.93;;
13605;SDS011;6874;52.084;5.090;2023-06-26T09:59:42;230.47;;;222.87;;
13605;SDS011;6874;52.084;5.090;2023-06-26T10:02:11;269.50;;;260.60;;
13605;SDS011;6874;52.084;5.090;2023-06-26T10:04:37;259.00;;;250.40;;
13605;SDS011;6874;52.084;5.090;2023-06-26T10:07:08;277.77;;;268.50;;
13605;SDS011;6874;52.084;5.090;2023-06-26T10:09:37;261.93;;;253.27;;
13605;SDS011;6874;52.084;5.090;2023-06-26T10:12:15;256.67;;;248.10;;
13605;SDS011;6874;52.084;5.090;2023-06-26T10:14:44;261.93;;;253.13;;
13605;SDS011;6874;52.084;5.090;2023-06-26T10:17:10;257.53;;;248.73;;
13605;SDS011;6874;52.084;5.090;2023-06-26T10:19:41;283.33;;;273.60;;
13605;SDS011;6874;52.084;5.090;2023-06-26T10:22:11;296.27;;;286.13;;
13605;SDS011;6874;52.084;5.090;2023-06-26T10:24:40;313.03;;;302.33;;
13605;SDS011;6874;52.084;5.090;2023-06-26T10:27:08;312.83;;;302.03;;
13605;SDS011;6874;52.084;5.090;2023-06-26T10:29:43;321.53;;;310.30;;
13605;SDS011;6874;52.084;5.090;2023-06-26T10:32:11;326.57;;;315.13;;
13605;SDS011;6874;52.084;5.090;2023-06-26T10:34:38;319.23;;;308.17;;
13605;SDS011;6874;52.084;5.090;2023-06-26T10:37:04;321.37;;;310.17;;
13605;SDS011;6874;52.084;5.090;2023-06-26T10:42:12;297.20;;;286.83;;
13605;SDS011;6874;52.084;5.090;2023-06-26T10:44:44;293.10;;;282.93;;
13605;SDS011;6874;52.084;5.090;2023-06-26T10:47:29;302.53;;;292.27;;
13605;SDS011;6874;52.084;5.090;2023-06-26T10:53:06;303.73;;;293.43;;
13605;SDS011;6874;52.084;5.090;2023-06-26T10:55:57;288.67;;;279.00;;
13605;SDS011;6874;52.084;5.090;2023-06-26T11:01:22;292.17;;;282.23;;
13605;SDS011;6874;52.084;5.090;2023-06-26T11:06:30;274.90;;;265.50;;
13605;SDS011;6874;52.084;5.090;2023-06-26T11:09:01;281.20;;;271.50;;
13605;SDS011;6874;52.084;5.090;2023-06-26T11:14:21;313.23;;;302.40;;
13605;SDS011;6874;52.084;5.090;2023-06-26T11:16:48;308.57;;;297.87;;
13605;SDS011;6874;52.084;5.090;2023-06-26T11:19:14;309.33;;;298.57;;
13605;SDS011;6874;52.084;5.090;2023-06-26T11:21:41;311.33;;;300.53;;
13605;SDS011;6874;52.084;5.090;2023-06-26T11:24:07;286.40;;;276.43;;
13605;SDS011;6874;52.084;5.090;2023-06-26T11:26:43;286.40;;;276.47;;
13605;SDS011;6874;52.084;5.090;2023-06-26T11:29:10;289.27;;;279.33;;
13605;SDS011;6874;52.084;5.090;2023-06-26T11:31:37;274.47;;;264.87;;
13605;SDS011;6874;52.084;5.090;2023-06-26T11:34:07;279.30;;;269.60;;
13605;SDS011;6874;52.084;5.090;2023-06-26T11:36:36;292.40;;;282.23;;
13605;SDS011;6874;52.084;5.090;2023-06-26T11:39:03;252.10;;;243.37;;
13605;SDS011;6874;52.084;5.090;2023-06-26T11:41:33;186.40;;;179.90;;
13605;SDS011;6874;52.084;5.090;2023-06-26T11:44:03;203.30;;;196.37;;
13605;SDS011;6874;52.084;5.090;2023-06-26T11:46:30;210.90;;;203.73;;
13605;SDS011;6874;52.084;5.090;2023-06-26T11:48:56;211.70;;;204.50;;
13605;SDS011;6874;52.084;5.090;2023-06-26T11:51:22;212.80;;;205.50;;
13605;SDS011;6874;52.084;5.090;2023-06-26T11:53:47;235.87;;;227.80;;
13605;SDS011;6874;52.084;5.090;2023-06-26T11:56:14;223.77;;;216.13;;
13605;SDS011;6874;52.084;5.090;2023-06-26T11:58:57;207.63;;;200.50;;
13605;SDS011;6874;52.084;5.090;2023-06-26T12:04:02;251.23;;;242.60;;
13605;SDS011;6874;52.084;5.090;2023-06-26T12:06:29;291.93;;;281.87;;
13605;SDS011;6874;52.084;5.090;2023-06-26T12:08:57;301.17;;;290.60;;
13605;SDS011;6874;52.084;5.090;2023-06-26T12:11:25;290.50;;;280.47;;
13605;SDS011;6874;52.084;5.090;2023-06-26T12:13:53;305.03;;;294.53;;
13605;SDS011;6874;52.084;5.090;2023-06-26T12:16:19;323.93;;;312.67;;
13605;SDS011;6874;52.084;5.090;2023-06-26T12:18:46;305.13;;;294.70;;
13605;SDS011;6874;52.084;5.090;2023-06-26T12:21:28;307.50;;;296.87;;
13605;SDS011;6874;52.084;5.090;2023-06-26T12:24:03;289.93;;;279.97;;
13605;SDS011;6874;52.084;5.090;2023-06-26T12:26:30;312.97;;;302.17;;
13605;SDS011;6874;52.084;5.090;2023-06-26T12:29:06;309.70;;;299.00;;
13605;SDS011;6874;52.084;5.090;2023-06-26T12:31:39;324.97;;;313.80;;
13605;SDS011;6874;52.084;5.090;2023-06-26T12:34:10;379.50;;;365.97;;
13605;SDS011;6874;52.084;5.090;2023-06-26T12:36:41;398.63;;;384.20;;
13605;SDS011;6874;52.084;5.090;2023-06-26T12:39:11;412.17;;;397.07;;
13605;SDS011;6874;52.084;5.090;2023-06-26T12:41:57;404.90;;;390.13;;
13605;SDS011;6874;52.084;5.090;2023-06-26T12:44:26;408.30;;;393.60;;
13605;SDS011;6874;52.084;5.090;2023-06-26T12:47:02;450.93;;;434.10;;
13605;SDS011;6874;52.084;5.090;2023-06-26T12:49:38;467.93;;;450.17;;
13605;SDS011;6874;52.084;5.090;2023-06-26T12:52:05;491.33;;;472.23;;
13605;SDS011;6874;52.084;5.090;2023-06-26T12:54:35;518.43;;;497.73;;
13605;SDS011;6874;52.084;5.090;2023-06-26T12:57:01;497.70;;;478.13;;
13605;SDS011;6874;52.084;5.090;2023-06-26T12:59:29;483.10;;;464.40;;
13605;SDS011;6874;52.084;5.090;2023-06-26T13:01:55;510.50;;;490.17;;
13605;SDS011;6874;52.084;5.090;2023-06-26T13:04:21;500.17;;;480.37;;
13605;SDS011;6874;52.084;5.090;2023-06-26T13:06:46;509.43;;;489.10;;
13605;SDS011;6874;52.084;5.090;2023-06-26T13:09:12;519.93;;;498.93;;
13605;SDS011;6874;52.084;5.090;2023-06-26T13:11:41;514.47;;;494.00;;
13605;SDS011;6874;52.084;5.090;2023-06-26T13:14:06;519.43;;;498.50;;
13605;SDS011;6874;52.084;5.090;2023-06-26T13:16:32;527.37;;;505.83;;
13605;SDS011;6874;52.084;5.090;2023-06-26T13:18:58;514.73;;;494.03;;
13605;SDS011;6874;52.084;5.090;2023-06-26T13:21:25;505.70;;;485.30;;
13605;SDS011;6874;52.084;5.090;2023-06-26T13:23:50;537.53;;;515.57;;
13605;SDS011;6874;52.084;5.090;2023-06-26T13:26:16;511.60;;;490.87;;
13605;SDS011;6874;52.084;5.090;2023-06-26T13:28:42;507.23;;;486.83;;
13605;SDS011;6874;52.084;5.090;2023-06-26T13:31:07;519.43;;;498.37;;
13605;SDS011;6874;52.084;5.090;2023-06-26T13:33:33;513.00;;;492.17;;
13605;SDS011;6874;52.084;5.090;2023-06-26T13:35:58;493.57;;;473.77;;
13605;SDS011;6874;52.084;5.090;2023-06-26T13:38:24;505.50;;;485.07;;
13605;SDS011;6874;52.084;5.090;2023-06-26T13:40:51;487.47;;;467.83;;
13605;SDS011;6874;52.084;5.090;2023-06-26T13:43:17;473.20;;;454.20;;
13605;SDS011;6874;52.084;5.090;2023-06-26T13:45:43;497.13;;;477.03;;
13605;SDS011;6874;52.084;5.090;2023-06-26T13:48:09;490.53;;;471.00;;
13605;SDS011;6874;52.084;5.090;2023-06-26T13:50:35;471.97;;;453.30;;
13605;SDS011;6874;52.084;5.090;2023-06-26T13:53:01;476.27;;;457.13;;
13605;SDS011;6874;52.084;5.090;2023-06-26T13:55:27;479.87;;;460.80;;
13605;SDS011;6874;52.084;5.090;2023-06-26T13:57:52;460.43;;;442.33;;
13605;SDS011;6874;52.084;5.090;2023-06-26T14:00:18;470.33;;;451.77;;
13605;SDS011;6874;52.084;5.090;2023-06-26T14:02:46;462.27;;;444.13;;
13605;SDS011;6874;52.084;5.090;2023-06-26T14:05:12;440.87;;;423.43;;
13605;SDS011;6874;52.084;5.090;2023-06-26T14:07:38;455.40;;;437.27;;
13605;SDS011;6874;52.084;5.090;2023-06-26T14:10:04;450.97;;;433.10;;
13605;SDS011;6874;52.084;5.090;2023-06-26T14:12:31;435.63;;;418.47;;
13605;SDS011;6874;52.084;5.090;2023-06-26T14:14:56;422.50;;;406.03;;
13605;SDS011;6874;52.084;5.090;2023-06-26T14:17:22;435.27;;;418.17;;
13605;SDS011;6874;52.084;5.090;2023-06-26T14:19:49;419.10;;;402.80;;
13605;SDS011;6874;52.084;5.090;2023-06-26T14:22:14;408.83;;;392.90;;
13605;SDS011;6874;52.084;5.090;2023-06-26T14:24:40;440.27;;;422.90;;
13605;SDS011;6874;52.084;5.090;2023-06-26T14:27:06;454.43;;;436.43;;
13605;SDS011;6874;52.084;5.090;2023-06-26T14:29:31;425.63;;;408.93;;